createdAt,value
2019-05-14T00:01:32.173Z,100508.52
2019-05-14T00:03:58.765Z,100502.50
2019-05-14T00:06:25.346Z,100501.69
2019-05-14T00:08:52.333Z,100500.38
2019-05-14T00:11:19.016Z,100494.75
2019-05-14T00:13:45.614Z,100490.80
2019-05-14T00:16:12.197Z,100490.59
2019-05-14T00:18:38.805Z,100484.11
2019-05-14T00:21:05.382Z,100488.58
2019-05-14T00:23:32.189Z,100477.63
2019-05-14T00:25:58.851Z,100477.28
2019-05-14T00:28:25.440Z,100471.16
2019-05-14T00:30:52.568Z,100472.98
2019-05-14T00:33:19.196Z,100478.40
2019-05-14T00:35:45.859Z,100476.34
2019-05-14T00:38:12.455Z,100473.42
2019-05-14T00:40:39.032Z,100477.08
2019-05-14T00:43:05.598Z,100479.39
2019-05-14T00:45:32.206Z,100473.78
2019-05-14T00:47:58.779Z,100483.51
2019-05-14T00:50:25.373Z,100470.33
2019-05-14T00:52:51.950Z,100473.42
2019-05-14T00:55:18.569Z,100474.80
2019-05-14T00:57:45.141Z,100472.56
2019-05-14T01:00:11.841Z,100478.75
2019-05-14T01:02:38.484Z,100467.34
2019-05-14T01:05:05.078Z,100465.22
2019-05-14T01:07:31.725Z,100466.59
2019-05-14T01:09:58.343Z,100461.84
2019-05-14T01:12:24.912Z,100460.14
2019-05-14T01:15:05.645Z,100464.09
2019-05-14T01:17:19.838Z,100455.80
2019-05-14T01:19:46.445Z,100445.71
2019-05-14T01:22:13.018Z,100447.08
2019-05-14T01:24:41.711Z,100451.44
2019-05-14T01:27:07.922Z,100445.81
2019-05-14T01:29:34.531Z,100446.27
2019-05-14T01:32:01.371Z,100450.73
2019-05-14T01:34:28.091Z,100443.34
2019-05-14T01:36:54.666Z,100440.30
2019-05-14T01:39:21.392Z,100435.55
2019-05-14T01:41:48.027Z,100436.05
2019-05-14T01:44:14.645Z,100439.73
2019-05-14T01:46:42.037Z,100438.13
2019-05-14T01:49:08.891Z,100435.59
2019-05-14T01:51:35.471Z,100436.10
2019-05-14T01:54:02.104Z,100431.75
2019-05-14T01:56:28.709Z,100433.13
2019-05-14T01:58:55.308Z,100432.71
2019-05-14T02:01:22.049Z,100423.58
2019-05-14T02:03:48.658Z,100422.72
2019-05-14T02:06:15.229Z,100421.05
2019-05-14T02:08:41.804Z,100421.56
2019-05-14T02:11:08.423Z,100430.42
2019-05-14T02:13:34.991Z,100421.67
2019-05-14T02:16:02.181Z,100427.44
2019-05-14T02:18:31.094Z,100426.58
2019-05-14T02:20:57.702Z,100431.89
2019-05-14T02:23:24.283Z,100431.89
2019-05-14T02:25:51.838Z,100431.49
2019-05-14T02:28:18.656Z,100414.92
2019-05-14T02:30:55.945Z,100411.42
2019-05-14T02:33:13.545Z,100410.56
2019-05-14T02:35:40.139Z,100415.02
2019-05-14T02:38:09.982Z,100412.84
2019-05-14T02:40:35.043Z,100401.50
2019-05-14T02:43:01.627Z,100398.52
2019-05-14T02:45:30.353Z,100391.12
2019-05-14T02:47:59.942Z,100396.45
2019-05-14T02:50:24.892Z,100393.00
2019-05-14T02:52:51.455Z,100396.09
2019-05-14T02:55:19.384Z,100390.96
2019-05-14T02:57:46.230Z,100389.19
2019-05-14T03:00:12.893Z,100383.06
2019-05-14T03:02:40.347Z,100387.88
2019-05-14T03:05:09.908Z,100384.38
2019-05-14T03:07:38.984Z,100380.44
2019-05-14T03:10:03.873Z,100383.06
2019-05-14T03:12:30.527Z,100388.33
2019-05-14T03:14:58.867Z,100392.28
2019-05-14T03:17:25.679Z,100392.68
2019-05-14T03:19:52.307Z,100386.55
2019-05-14T03:22:26.349Z,100383.52
2019-05-14T03:24:50.000Z,100376.94
2019-05-14T03:27:19.145Z,100383.47
2019-05-14T03:29:43.914Z,100379.52
2019-05-14T03:32:13.110Z,100378.20
2019-05-14T03:34:43.346Z,100375.17
2019-05-14T03:37:13.206Z,100382.16
2019-05-14T03:39:35.484Z,100377.67
2019-05-14T03:42:02.057Z,100369.77
2019-05-14T03:44:29.144Z,100370.63
2019-05-14T03:47:03.752Z,100371.09
2019-05-14T03:49:24.314Z,100364.59
2019-05-14T03:51:50.934Z,100364.59
2019-05-14T03:54:19.542Z,100360.96
2019-05-14T03:56:45.940Z,100356.56
2019-05-14T03:59:13.392Z,100358.69
2019-05-14T04:01:40.389Z,100352.96
2019-05-14T04:04:10.256Z,100353.37
2019-05-14T04:06:35.409Z,100352.45
2019-05-14T04:09:01.999Z,100352.45
2019-05-14T04:11:29.481Z,100352.41
2019-05-14T04:13:56.273Z,100360.25
2019-05-14T04:16:22.874Z,100349.31
2019-05-14T04:18:50.405Z,100346.68
2019-05-14T04:21:20.392Z,100355.44
2019-05-14T04:23:45.533Z,100347.54
2019-05-14T04:26:12.176Z,100345.77
2019-05-14T04:28:39.436Z,100344.05
2019-05-14T04:31:06.086Z,100341.82
2019-05-14T04:33:32.669Z,100343.95
2019-05-14T04:36:00.099Z,100339.94
2019-05-14T04:38:30.011Z,100338.17
2019-05-14T04:40:55.476Z,100335.94
2019-05-14T04:43:22.050Z,100336.31
2019-05-14T04:45:49.633Z,100330.53
2019-05-14T04:48:31.030Z,100332.71
2019-05-14T04:50:45.036Z,100332.20
2019-05-14T04:53:11.604Z,100331.69
2019-05-14T04:55:40.113Z,100332.95
2019-05-14T04:58:09.805Z,100328.49
2019-05-14T05:00:34.869Z,100329.30
2019-05-14T05:03:01.441Z,100328.78
2019-05-14T05:05:29.953Z,100331.28
2019-05-14T05:07:59.418Z,100328.53
2019-05-14T05:10:24.666Z,100324.08
2019-05-14T05:12:51.239Z,100328.31
2019-05-14T05:15:19.797Z,100325.17
2019-05-14T05:17:51.867Z,100332.92
2019-05-14T05:20:14.425Z,100319.19
2019-05-14T05:22:41.021Z,100318.62
2019-05-14T05:25:08.367Z,100321.14
2019-05-14T05:27:35.092Z,100322.86
2019-05-14T05:30:01.672Z,100313.98
2019-05-14T05:32:28.648Z,100320.11
2019-05-14T05:34:55.329Z,100321.03
2019-05-14T05:37:21.929Z,100320.62
2019-05-14T05:39:49.220Z,100310.03
2019-05-14T05:42:18.577Z,100314.39
2019-05-14T05:44:44.347Z,100314.84
2019-05-14T05:47:10.948Z,100304.70
2019-05-14T05:49:38.188Z,100301.47
2019-05-14T05:52:05.004Z,100304.78
2019-05-14T05:54:31.580Z,100308.56
2019-05-14T05:56:58.335Z,100309.62
2019-05-14T05:59:25.175Z,100291.98
2019-05-14T06:01:54.265Z,100296.61
2019-05-14T06:04:20.098Z,100289.94
2019-05-14T06:06:48.308Z,100292.05
2019-05-14T06:09:15.037Z,100296.31
2019-05-14T06:11:41.659Z,100284.39
2019-05-14T06:14:08.450Z,100283.88
2019-05-14T06:16:35.110Z,100281.64
2019-05-14T06:19:01.684Z,100278.94
2019-05-14T06:21:29.211Z,100286.33
2019-05-14T06:23:58.103Z,100281.52
2019-05-14T06:26:24.365Z,100286.21
2019-05-14T06:28:50.966Z,100283.11
2019-05-14T06:31:19.327Z,100283.11
2019-05-14T06:33:48.412Z,100284.83
2019-05-14T06:36:14.711Z,100283.91
2019-05-14T06:38:41.562Z,100280.02
2019-05-14T06:41:08.387Z,100277.84
2019-05-14T06:43:35.222Z,100273.48
2019-05-14T06:46:01.805Z,100268.22
2019-05-14T06:48:34.322Z,100265.98
2019-05-14T06:50:58.337Z,100265.45
2019-05-14T06:53:25.207Z,100268.86
2019-05-14T06:55:51.783Z,100274.41
2019-05-14T06:58:20.122Z,100263.34
2019-05-14T07:00:49.308Z,100261.37
2019-05-14T07:03:15.062Z,100264.81
2019-05-14T07:05:41.656Z,100258.58
2019-05-14T07:08:09.116Z,100261.62
2019-05-14T07:10:35.785Z,100262.02
2019-05-14T07:13:02.409Z,100266.31
2019-05-14T07:15:29.168Z,100265.39
2019-05-14T07:17:58.266Z,100261.37
2019-05-14T07:20:24.058Z,100258.33
2019-05-14T07:22:50.956Z,100249.96
2019-05-14T07:25:18.373Z,100247.26
2019-05-14T07:27:45.221Z,100250.81
2019-05-14T07:30:11.801Z,100251.67
2019-05-14T07:32:39.524Z,100241.52
2019-05-14T07:35:08.938Z,100246.73
2019-05-14T07:37:34.835Z,100242.78
2019-05-14T07:40:01.437Z,100238.42
2019-05-14T07:42:28.924Z,100237.56
2019-05-14T07:44:55.699Z,100226.95
2019-05-14T07:47:22.312Z,100231.58
2019-05-14T07:52:33.086Z,100245.53
2019-05-14T08:00:31.065Z,100246.20
2019-05-14T08:05:30.053Z,100245.94
2019-05-14T08:07:58.489Z,100246.73
2019-05-14T08:10:25.005Z,100246.64
2019-05-14T08:18:18.679Z,100225.33
2019-05-14T08:20:44.486Z,100219.13
2019-05-14T08:23:11.094Z,100217.81
2019-05-14T08:25:39.006Z,100213.86
2019-05-14T08:28:07.951Z,100209.89
2019-05-14T08:30:34.171Z,100212.01
2019-05-14T08:33:00.783Z,100204.02
2019-05-14T08:35:29.024Z,100206.00
2019-05-14T08:38:05.540Z,100205.24
2019-05-14T08:40:24.029Z,100198.70
2019-05-14T08:42:50.673Z,100198.41
2019-05-14T08:45:18.992Z,100197.73
2019-05-14T08:47:48.116Z,100196.20
2019-05-14T08:50:14.038Z,100190.23
2019-05-14T08:52:40.667Z,100189.16
2019-05-14T08:55:11.003Z,100190.34
2019-05-14T08:57:38.491Z,100181.42
2019-05-14T09:00:04.020Z,100176.83
2019-05-14T09:02:30.664Z,100175.90
2019-05-14T09:05:03.327Z,100183.75
2019-05-14T09:07:25.652Z,100175.30
2019-05-14T09:09:52.245Z,100170.34
2019-05-14T09:12:18.947Z,100166.23
2019-05-14T09:14:48.093Z,100173.55
2019-05-14T09:17:14.899Z,100175.55
2019-05-14T09:19:57.573Z,100180.44
2019-05-14T09:22:10.040Z,100174.23
2019-05-14T09:24:38.790Z,100173.23
2019-05-14T09:27:05.570Z,100165.31
2019-05-14T09:29:32.428Z,100168.80
2019-05-14T09:31:59.358Z,100164.45
2019-05-14T09:34:28.800Z,100155.59
2019-05-14T09:36:54.488Z,100152.95
2019-05-14T09:39:21.118Z,100156.52
2019-05-14T09:41:48.248Z,100151.78
2019-05-14T09:44:18.579Z,100145.63
2019-05-14T09:46:44.455Z,100147.49
2019-05-14T09:49:11.046Z,100152.56
2019-05-14T09:51:38.416Z,100148.02
2019-05-14T09:54:05.295Z,100149.02
2019-05-14T09:56:31.871Z,100141.63
2019-05-14T09:58:58.771Z,100147.88
2019-05-14T10:01:25.544Z,100142.27
2019-05-14T10:03:52.157Z,100140.09
2019-05-14T10:06:20.698Z,100144.91
2019-05-14T10:08:48.531Z,100138.31
2019-05-14T10:11:15.328Z,100141.73
2019-05-14T10:13:42.090Z,100139.45
2019-05-14T10:16:09.473Z,100138.14
2019-05-14T10:18:38.035Z,100133.42
2019-05-14T10:21:04.829Z,100139.09
2019-05-14T10:23:31.445Z,100134.81
2019-05-14T10:25:58.221Z,100137.84
2019-05-14T10:28:25.024Z,100139.63
2019-05-14T10:30:51.597Z,100140.56
2019-05-14T10:33:18.969Z,100140.17
2019-05-14T10:35:48.183Z,100127.03
2019-05-14T10:38:13.894Z,100119.90
2019-05-14T10:40:40.461Z,100115.41
2019-05-14T10:43:09.189Z,100101.95
2019-05-14T10:45:35.368Z,100092.09
2019-05-14T10:48:02.004Z,100088.30
2019-05-14T10:50:29.025Z,100069.09
2019-05-14T10:52:55.697Z,100065.84
2019-05-14T10:55:22.291Z,100075.72
2019-05-14T10:57:53.906Z,100076.78
2019-05-14T11:00:18.605Z,100072.95
2019-05-14T11:02:45.353Z,100081.90
2019-05-14T11:05:11.965Z,100090.89
2019-05-14T11:07:41.800Z,100088.41
2019-05-14T11:10:09.033Z,100082.51
2019-05-14T11:12:35.263Z,100082.75
2019-05-14T11:15:01.911Z,100085.78
2019-05-14T11:17:29.019Z,100093.61
2019-05-14T11:19:55.989Z,100098.14
2019-05-14T11:22:22.566Z,100099.55
2019-05-14T11:24:49.361Z,100099.23
2019-05-14T11:27:18.462Z,100099.69
2019-05-14T11:29:44.403Z,100105.05
2019-05-14T11:32:10.980Z,100106.91
2019-05-14T11:34:39.031Z,100118.03
2019-05-14T11:37:08.365Z,100119.14
2019-05-14T11:39:34.283Z,100134.83
2019-05-14T11:42:00.928Z,100143.13
2019-05-14T11:44:28.614Z,100135.06
2019-05-14T11:46:57.857Z,100130.89
2019-05-14T11:49:23.845Z,100137.64
2019-05-14T11:52:10.517Z,100128.92
2019-05-14T11:54:22.771Z,100117.04
2019-05-14T11:56:48.286Z,100101.44
2019-05-14T11:59:15.053Z,100081.40
2019-05-14T12:01:41.727Z,100081.42
2019-05-14T12:04:09.136Z,100084.16
2019-05-14T12:06:38.786Z,100084.60
2019-05-14T12:09:04.240Z,100080.18
2019-05-14T12:11:30.815Z,100081.02
2019-05-14T12:13:59.818Z,100081.02
2019-05-14T12:16:28.892Z,100078.88
2019-05-14T12:18:54.078Z,100075.93
2019-05-14T12:21:21.842Z,100071.23
2019-05-14T12:23:48.410Z,100056.83
2019-05-14T12:26:15.024Z,100061.50
2019-05-14T12:28:41.603Z,100060.17
2019-05-14T12:31:09.371Z,100056.59
2019-05-14T12:33:36.300Z,100054.33
2019-05-14T12:36:02.912Z,100054.33
2019-05-14T12:38:29.783Z,100044.69
2019-05-14T12:40:58.491Z,100038.08
2019-05-14T12:43:24.778Z,100030.22
2019-05-14T12:45:51.963Z,100039.48
2019-05-14T12:48:18.904Z,100028.89
2019-05-14T12:50:48.661Z,100032.86
2019-05-14T12:53:14.258Z,100023.22
2019-05-14T12:55:40.881Z,100025.39
2019-05-14T12:58:08.256Z,100019.25
2019-05-14T13:00:35.057Z,100024.16
2019-05-14T13:03:01.651Z,100021.05
2019-05-14T13:05:29.304Z,100021.98
2019-05-14T13:07:58.040Z,100018.86
2019-05-14T13:10:24.769Z,100016.60
2019-05-14T13:12:51.341Z,100007.81
2019-05-14T13:15:20.201Z,100006.87
2019-05-14T13:17:48.389Z,100012.64
2019-05-14T13:20:14.582Z,100008.28
2019-05-14T13:22:45.931Z,100004.39
2019-05-14T13:25:10.979Z,99998.33
2019-05-14T13:27:39.201Z,99998.80
2019-05-14T13:30:08.886Z,99990.94
2019-05-14T13:32:34.356Z,99993.59
2019-05-14T13:35:00.973Z,99987.91
2019-05-14T13:37:28.816Z,99991.52
2019-05-14T13:39:55.519Z,99989.04
2019-05-14T13:42:22.103Z,99992.31
2019-05-14T13:44:48.715Z,99988.59
2019-05-14T13:47:15.283Z,99991.03
2019-05-14T13:49:41.904Z,99982.88
2019-05-14T13:52:09.307Z,99980.39
2019-05-14T13:54:36.197Z,99986.69
2019-05-14T13:57:02.775Z,99982.02
2019-05-14T13:59:29.363Z,99977.86
2019-05-14T14:01:58.814Z,99973.05
2019-05-14T14:04:24.267Z,99967.05
2019-05-14T14:06:50.974Z,99967.52
2019-05-14T14:09:17.682Z,99963.25
2019-05-14T14:11:44.293Z,99963.80
2019-05-14T14:14:10.875Z,99963.41
2019-05-14T14:16:39.613Z,99955.64
2019-05-14T14:19:08.597Z,99961.50
2019-05-14T14:21:34.175Z,99951.86
2019-05-14T14:24:00.748Z,99949.30
2019-05-14T14:26:29.102Z,99943.16
2019-05-14T14:28:55.642Z,99940.13
2019-05-14T14:31:22.251Z,99937.56
2019-05-14T14:33:49.040Z,99938.03
2019-05-14T14:36:15.711Z,99938.03
2019-05-14T14:38:42.282Z,99939.34
2019-05-14T14:41:10.197Z,99941.13
2019-05-14T14:43:42.411Z,99935.46
2019-05-14T14:46:13.097Z,99931.11
2019-05-14T14:48:33.839Z,99932.90
2019-05-14T14:51:00.453Z,99935.08
2019-05-14T14:53:46.094Z,99924.97
2019-05-14T14:55:55.363Z,99928.08
2019-05-14T14:58:21.941Z,99931.58
2019-05-14T15:00:48.853Z,99931.66
2019-05-14T15:03:15.617Z,99927.69
2019-05-14T15:05:42.277Z,99925.13
2019-05-14T15:08:10.234Z,99923.81
2019-05-14T15:10:39.512Z,99916.27
2019-05-14T15:13:05.561Z,99918.52
2019-05-14T15:15:32.525Z,99913.62
2019-05-14T15:17:59.231Z,99910.44
2019-05-14T15:20:28.799Z,99908.27
2019-05-14T15:22:54.150Z,99915.80
2019-05-14T15:25:20.729Z,99912.84
2019-05-14T15:27:49.021Z,99914.28
2019-05-14T15:30:15.623Z,99911.80
2019-05-14T15:32:42.238Z,99910.98
2019-05-14T15:35:10.581Z,99905.39
2019-05-14T15:37:42.235Z,99900.66
2019-05-14T15:40:05.475Z,99891.95
2019-05-14T15:42:32.068Z,99881.47
2019-05-14T15:44:59.729Z,99876.65
2019-05-14T15:47:26.753Z,99867.79
2019-05-14T15:49:53.321Z,99871.20
2019-05-14T15:52:19.929Z,99871.98
2019-05-14T15:54:48.024Z,99871.05
2019-05-14T15:57:14.831Z,99870.12
2019-05-14T15:59:41.402Z,99864.91
2019-05-14T16:02:09.456Z,99864.98
2019-05-14T16:04:38.882Z,99859.32
2019-05-14T16:07:04.489Z,99861.96
2019-05-14T16:09:31.359Z,99865.45
2019-05-14T16:11:58.922Z,99865.84
2019-05-14T16:14:25.708Z,99856.13
2019-05-14T16:16:52.319Z,99842.53
2019-05-14T16:19:19.161Z,99838.19
2019-05-14T16:21:45.824Z,99832.82
2019-05-14T16:24:12.398Z,99822.72
2019-05-14T16:26:39.016Z,99824.43
2019-05-14T16:29:05.582Z,99822.25
2019-05-14T16:31:32.197Z,99819.70
2019-05-14T16:33:58.780Z,99822.72
2019-05-14T16:36:25.483Z,99825.75
2019-05-14T16:38:52.062Z,99824.82
2019-05-14T16:41:18.682Z,99830.56
2019-05-14T16:43:45.353Z,99838.03
2019-05-14T16:46:11.963Z,99846.80
2019-05-14T16:48:39.668Z,99845.56
2019-05-14T16:51:09.134Z,99837.80
2019-05-14T16:53:37.833Z,99838.27
2019-05-14T16:56:04.489Z,99822.88
2019-05-14T16:58:32.136Z,99808.90
2019-05-14T17:00:58.902Z,99811.55
2019-05-14T17:03:25.609Z,99812.86
2019-05-14T17:05:52.184Z,99816.83
2019-05-14T17:08:19.246Z,99809.48
2019-05-14T17:10:48.063Z,99814.77
2019-05-14T17:13:14.201Z,99824.94
2019-05-14T17:15:40.772Z,99832.09
2019-05-14T17:18:08.894Z,99832.72
2019-05-14T17:20:35.640Z,99837.30
2019-05-14T17:23:02.256Z,99838.31
2019-05-14T17:25:30.450Z,99822.19
2019-05-14T17:27:59.430Z,99818.70
2019-05-14T17:30:25.597Z,99803.48
2019-05-14T17:32:52.282Z,99814.04
2019-05-14T17:35:19.560Z,99809.30
2019-05-14T17:37:48.304Z,99814.66
2019-05-14T17:40:14.724Z,99817.37
2019-05-14T17:42:41.317Z,99814.81
2019-05-14T17:45:08.223Z,99825.45
2019-05-14T17:47:34.885Z,99842.23
2019-05-14T17:50:01.467Z,99845.26
2019-05-14T17:52:30.133Z,99842.54
2019-05-14T17:54:56.356Z,99847.74
2019-05-14T17:57:25.264Z,99846.89
2019-05-14T17:59:51.283Z,99842.46
2019-05-14T18:02:19.108Z,99852.48
2019-05-14T18:04:45.851Z,99846.73
2019-05-14T18:07:14.193Z,99842.31
2019-05-14T18:09:40.876Z,99843.55
2019-05-14T18:12:08.199Z,99844.79
2019-05-14T18:14:34.932Z,99843.47
2019-05-14T18:17:01.556Z,99840.45
2019-05-14T18:19:28.932Z,99839.13
2019-05-14T18:21:55.810Z,99847.05
2019-05-14T18:24:22.386Z,99849.30
2019-05-14T18:26:49.005Z,99843.16
2019-05-14T18:29:15.586Z,99839.28
2019-05-14T18:31:45.080Z,99837.19
2019-05-14T18:34:10.503Z,99838.11
2019-05-14T18:36:39.526Z,99834.70
2019-05-14T18:39:05.706Z,99834.89
2019-05-14T18:41:32.327Z,99838.84
2019-05-14T18:43:59.027Z,99833.72
2019-05-14T18:46:28.340Z,99830.69
2019-05-14T18:48:55.072Z,99828.59
2019-05-14T18:51:21.661Z,99834.80
2019-05-14T18:53:49.092Z,99837.98
2019-05-14T18:56:23.387Z,99831.54
2019-05-14T18:58:44.261Z,99831.54
2019-05-14T19:01:10.841Z,99826.27
2019-05-14T19:03:39.603Z,99831.16
2019-05-14T19:06:05.763Z,99830.77
2019-05-14T19:08:32.369Z,99834.83
2019-05-14T19:10:59.464Z,99834.83
2019-05-14T19:13:28.179Z,99835.38
2019-05-14T19:15:54.610Z,99835.91
2019-05-14T19:18:21.212Z,99841.66
2019-05-14T19:20:48.568Z,99845.77
2019-05-14T19:23:15.386Z,99842.66
2019-05-14T19:25:41.962Z,99839.63
2019-05-14T19:28:08.961Z,99830.78
2019-05-14T19:30:37.979Z,99832.50
2019-05-14T19:33:04.045Z,99830.32
2019-05-14T19:35:30.653Z,99824.11
2019-05-14T19:37:59.360Z,99822.72
2019-05-14T19:40:28.069Z,99823.96
2019-05-14T19:42:53.922Z,99817.75
2019-05-14T19:45:20.481Z,99818.99
2019-05-14T19:47:49.369Z,99823.31
2019-05-14T19:50:15.746Z,99810.50
2019-05-14T19:52:42.352Z,99811.74
2019-05-14T19:55:08.935Z,99809.49
2019-05-14T19:57:35.543Z,99805.53
2019-05-14T20:00:02.130Z,99811.13
2019-05-14T20:02:28.770Z,99809.34
2019-05-14T20:04:55.384Z,99806.16
2019-05-14T20:07:21.958Z,99803.44
2019-05-14T20:09:48.924Z,99801.65
2019-05-14T20:12:15.497Z,99802.03
2019-05-14T20:14:42.121Z,99798.94
2019-05-14T20:17:09.051Z,99796.76
2019-05-14T20:19:35.807Z,99794.89
2019-05-14T20:22:02.385Z,99789.61
2019-05-14T20:24:28.979Z,99788.18
2019-05-14T20:27:05.797Z,99790.66
2019-05-14T20:29:24.013Z,99785.85
2019-05-14T20:31:50.611Z,99787.48
2019-05-14T20:34:19.133Z,99784.38
2019-05-14T20:36:45.538Z,99779.48
2019-05-14T20:39:12.152Z,99782.51
2019-05-14T20:41:38.814Z,99781.97
2019-05-14T20:44:05.424Z,99779.71
2019-05-14T20:46:31.997Z,99773.11
2019-05-14T20:48:59.262Z,99773.11
2019-05-14T20:51:27.620Z,99774.81
2019-05-14T20:53:54.205Z,99774.05
2019-05-14T20:56:20.776Z,99770.08
2019-05-14T20:58:48.148Z,99770.55
2019-05-14T21:01:14.883Z,99773.11
2019-05-14T21:03:44.021Z,99775.83
2019-05-14T21:06:09.871Z,99768.45
2019-05-14T21:08:38.003Z,99769.00
2019-05-14T21:11:04.743Z,99764.73
2019-05-14T21:13:31.357Z,99765.00
2019-05-14T21:15:57.987Z,99769.42
2019-05-14T21:18:34.647Z,99750.72
2019-05-14T21:20:52.999Z,99755.69
2019-05-14T21:23:19.596Z,99751.80
2019-05-14T21:25:48.195Z,99754.91
2019-05-14T21:28:14.551Z,99752.35
2019-05-14T21:30:41.131Z,99751.96
2019-05-14T21:33:08.371Z,99745.83
2019-05-14T21:35:35.196Z,99748.00
2019-05-14T21:38:01.765Z,99743.66
2019-05-14T21:40:29.146Z,99741.41
2019-05-14T21:42:56.662Z,99738.77
2019-05-14T21:45:23.274Z,99740.94
2019-05-14T21:47:49.866Z,99742.64
2019-05-14T21:50:18.159Z,99737.84
2019-05-14T21:52:44.835Z,99728.98
2019-05-14T21:55:11.440Z,99729.38
2019-05-14T21:57:39.643Z,99729.76
2019-05-14T22:00:08.327Z,99734.10
2019-05-14T22:02:34.688Z,99726.19
2019-05-14T22:05:01.501Z,99729.29
2019-05-14T22:07:28.346Z,99724.86
2019-05-14T22:09:54.960Z,99723.16
2019-05-14T22:12:21.559Z,99718.81
2019-05-14T22:14:48.254Z,99720.13
2019-05-14T22:17:14.816Z,99718.34
2019-05-14T22:19:41.425Z,99726.66
2019-05-14T22:22:08.144Z,99717.41
2019-05-14T22:24:34.804Z,99718.27
2019-05-14T22:27:01.372Z,99720.83
2019-05-14T22:29:28.579Z,99716.02
2019-05-14T22:31:55.319Z,99708.95
2019-05-14T22:34:21.934Z,99706.77
2019-05-14T22:36:48.606Z,99705.30
2019-05-14T22:39:15.319Z,99701.34
2019-05-14T22:41:41.897Z,99696.98
2019-05-14T22:44:09.560Z,99696.05
2019-05-14T22:46:39.966Z,99693.41
2019-05-14T22:49:04.788Z,99693.41
2019-05-14T22:51:33.183Z,99691.70
2019-05-14T22:53:59.674Z,99693.96
2019-05-14T22:56:28.045Z,99687.36
2019-05-14T22:58:54.575Z,99684.72
2019-05-14T23:01:21.150Z,99686.89
2019-05-14T23:03:48.965Z,99686.42
2019-05-14T23:06:15.940Z,99682.08
2019-05-14T23:08:42.571Z,99684.25
2019-05-14T23:11:09.168Z,99690.39
2019-05-14T23:13:35.740Z,99687.75
2019-05-14T23:16:02.327Z,99685.50
2019-05-14T23:18:28.902Z,99678.43
2019-05-14T23:20:55.505Z,99670.51
2019-05-14T23:23:22.076Z,99677.11
2019-05-14T23:25:48.685Z,99684.95
2019-05-14T23:28:15.263Z,99677.49
2019-05-14T23:30:41.875Z,99668.17
2019-05-14T23:33:08.460Z,99677.41
2019-05-14T23:35:35.068Z,99670.81
2019-05-14T23:38:01.645Z,99663.83
2019-05-14T23:40:29.102Z,99655.44
2019-05-14T23:42:58.606Z,99651.95
2019-05-14T23:45:24.043Z,99656.38
2019-05-14T23:47:50.643Z,99657.31
2019-05-14T23:50:17.241Z,99655.98
2019-05-14T23:52:43.856Z,99651.17
2019-05-14T23:55:10.436Z,99652.50
2019-05-14T23:57:37.068Z,99647.30
